Emerado, ND (58228)

10:02 AM CDT on April 30, 2017 (GMT -0500)
UND Oakville Prairie | | Change Station

Elev 873 ft 47.89 °N, 97.32 °W | Updated 8 minutes ago

Clear
Clear
49.7 °F
Feels Like 49 °F
N
3.4
Wind Variable Wind from SE
Gusts 7.9 mph

Today
High -- | Low -- °F
--% Chance of Precip.
Yesterday
High -- | Low -- °F
Precip. -- in
Pressure 30.14 in
Visibility 10.0 miles
Clouds Clear
Windchill 49 °F
Dew Point 36 °F
Humidity 57%
Rainfall Not available.
Snow Depth Not available.
6:12 AM 8:41 PM
Waxing Crescent, 23% visible
METAR KRDR 301458Z AUTO 17004KT 10SM CLR 11/M01 A3011 RMK AO2 SLP206 T01131010 57013
Pressure 30.14 in
Visibility 10.0 miles
Clouds Clear
Windchill 49 °F
Dew Point 36 °F
Humidity 57%
Rainfall Not available.
Snow Depth Not available.
6:12 AM 8:41 PM
Waxing Crescent, 23% visible
METAR KRDR 301458Z AUTO 17004KT 10SM CLR 11/M01 A3011 RMK AO2 SLP206 T01131010 57013

Get Severe Weather Alerts

Thanks for signing up!

Be on the lookout for a verification email in your inbox.

You'll start receiving the daily forecast at 8 AM.

×

10-Day Weather Forecast

Almanac

Astronomy

Apr. 30, 2017 Rise Set
Actual Time
Civil Twilight
Nautical Twilight
Astronomical Twilight
Moon
Length of Visible Light
Length of Day
Tomorrow will be .
, % of the Moon is Illuminated

Today's Extremes

State Highs State Lows

Community

WunderPhotos

WunderBlog® & News

Nearby

Air Quality

  Air Quality AQ Index Pollutant
Not available.

Snow Depth

Station Depth Elevation

Earthquake Activity

City Distance Mag. Time & Date
Minimum magnitude displayed is 2.5.

Coastal Water Temperatures

Place Temperature

Stations

Nearby Weather Stations

Station Location Temp. Windchill Dew Point Humidity Wind Precip. Elev Updated Type
                   

Watches & Warnings

There are currently no watches in effect.